createdAt,value
2017-02-08T00:00:18.323Z,13.25
2017-02-08T00:01:27.312Z,13.23
2017-02-08T00:02:36.305Z,13.25
2017-02-08T00:03:45.285Z,13.28
2017-02-08T00:04:54.271Z,13.21
2017-02-08T00:06:03.250Z,13.12
2017-02-08T00:07:12.234Z,13.09
2017-02-08T00:08:21.223Z,13.2
2017-02-08T00:09:30.623Z,12.98
2017-02-08T00:10:39.603Z,12.94
2017-02-08T00:11:48.597Z,13.02
2017-02-08T00:12:57.576Z,13.03
2017-02-08T00:14:06.563Z,12.95
2017-02-08T00:15:15.549Z,12.92
2017-02-08T00:16:24.529Z,12.92
2017-02-08T00:17:33.555Z,12.99
2017-02-08T00:18:42.542Z,12.99
2017-02-08T00:19:51.525Z,12.92
2017-02-08T00:21:00.515Z,12.92
2017-02-08T00:22:09.493Z,12.87
2017-02-08T00:23:18.465Z,12.8
2017-02-08T00:24:27.442Z,12.84
2017-02-08T00:25:36.418Z,12.73
2017-02-08T00:26:45.390Z,12.72
2017-02-08T00:27:54.371Z,12.8
2017-02-08T00:29:03.362Z,12.82
2017-02-08T00:30:12.339Z,12.69
2017-02-08T00:31:21.324Z,12.66
2017-02-08T00:32:30.304Z,12.67
2017-02-08T00:33:39.285Z,12.72
2017-02-08T00:34:48.263Z,12.67
2017-02-08T00:35:57.248Z,12.65
2017-02-08T00:37:06.231Z,12.62
2017-02-08T00:38:15.225Z,12.55
2017-02-08T00:39:24.221Z,12.54
2017-02-08T00:40:33.243Z,12.6
2017-02-08T00:41:42.219Z,12.55
2017-02-08T00:42:51.194Z,12.62
2017-02-08T00:44:00.177Z,12.57
2017-02-08T00:45:09.194Z,12.55
2017-02-08T00:46:18.236Z,12.49
2017-02-08T00:47:27.634Z,12.55
2017-02-08T00:48:36.619Z,12.51
2017-02-08T00:49:45.586Z,12.48
2017-02-08T00:50:54.563Z,12.52
2017-02-08T00:52:03.561Z,12.47
2017-02-08T00:53:12.950Z,12.48
2017-02-08T00:54:21.963Z,12.44
2017-02-08T00:55:30.941Z,12.49
2017-02-08T00:56:40.336Z,12.29
2017-02-08T00:57:49.324Z,12.3
2017-02-08T00:58:58.303Z,12.32
2017-02-08T01:00:07.298Z,12.3
2017-02-08T01:01:16.276Z,12.29
2017-02-08T01:02:25.252Z,12.32
2017-02-08T01:03:34.228Z,12.36
2017-02-08T01:04:43.209Z,12.44
2017-02-08T01:05:52.209Z,12.3
2017-02-08T01:07:01.189Z,12.27
2017-02-08T01:08:10.169Z,12.19
2017-02-08T01:09:19.150Z,12.21
2017-02-08T01:10:28.130Z,12.19
2017-02-08T01:11:37.110Z,12.33
2017-02-08T01:12:46.092Z,12.29
2017-02-08T01:13:55.079Z,12.18
2017-02-08T01:15:04.524Z,12.19
2017-02-08T01:16:13.500Z,12.19
2017-02-08T01:17:22.482Z,12.16
2017-02-08T01:18:31.463Z,12.05
2017-02-08T01:19:40.442Z,12.05
2017-02-08T01:20:49.432Z,12.15
2017-02-08T01:21:58.419Z,12.09
2017-02-08T01:23:07.390Z,12.12
2017-02-08T01:24:17.304Z,12.09
2017-02-08T01:25:26.270Z,11.99
2017-02-08T01:26:35.257Z,12.14
2017-02-08T01:27:44.242Z,11.99
2017-02-08T01:28:53.214Z,12.04
2017-02-08T01:30:02.192Z,11.96
2017-02-08T01:31:11.179Z,12.07
2017-02-08T01:32:20.148Z,12.01
2017-02-08T01:33:29.129Z,11.96
2017-02-08T01:34:38.124Z,11.93
2017-02-08T01:35:47.520Z,11.9
2017-02-08T01:36:56.496Z,11.89
2017-02-08T01:38:05.475Z,11.88
2017-02-08T01:39:14.455Z,11.9
2017-02-08T01:40:23.439Z,11.88
2017-02-08T01:41:32.428Z,11.9
2017-02-08T01:42:41.408Z,11.99
2017-02-08T01:43:50.383Z,11.9
2017-02-08T01:44:59.371Z,11.97
2017-02-08T01:46:08.358Z,11.94
2017-02-08T01:47:17.755Z,11.94
2017-02-08T01:48:26.750Z,11.82
2017-02-08T01:49:35.729Z,11.86
2017-02-08T01:50:45.127Z,11.96
2017-02-08T01:51:54.106Z,11.75
2017-02-08T01:53:03.083Z,11.81
2017-02-08T01:54:12.059Z,11.82
2017-02-08T01:55:21.043Z,11.89
2017-02-08T01:56:30.023Z,11.82
2017-02-08T01:57:38.995Z,11.82
2017-02-08T01:58:47.985Z,11.89
2017-02-08T01:59:56.967Z,11.85
2017-02-08T02:01:06.017Z,11.68
2017-02-08T02:02:14.996Z,11.68
2017-02-08T02:03:24.391Z,11.62
2017-02-08T02:04:33.356Z,11.63
2017-02-08T02:05:42.331Z,11.56
2017-02-08T02:06:51.316Z,11.6
2017-02-08T02:08:00.295Z,11.56
2017-02-08T02:09:09.276Z,11.63
2017-02-08T02:10:18.252Z,11.65
2017-02-08T02:11:27.631Z,11.63
2017-02-08T02:12:36.628Z,11.57
2017-02-08T02:13:45.603Z,11.59
2017-02-08T02:14:54.581Z,11.68
2017-02-08T02:16:03.569Z,11.62
2017-02-08T02:17:12.541Z,11.53
2017-02-08T02:18:21.521Z,11.65
2017-02-08T02:19:30.497Z,11.59
2017-02-08T02:20:39.491Z,11.57
2017-02-08T02:21:48.460Z,11.52
2017-02-08T02:22:57.429Z,11.5
2017-02-08T02:24:06.408Z,11.57
2017-02-08T02:25:15.384Z,11.55
2017-02-08T02:26:24.375Z,11.49
2017-02-08T02:27:33.351Z,11.48
2017-02-08T02:28:42.320Z,11.4
2017-02-08T02:29:51.287Z,11.53
2017-02-08T02:31:00.684Z,11.45
2017-02-08T02:32:09.664Z,11.5
2017-02-08T02:33:18.667Z,11.38
2017-02-08T02:34:27.657Z,11.3
2017-02-08T02:35:36.640Z,11.38
2017-02-08T02:36:45.623Z,11.38
2017-02-08T02:37:55.006Z,11.35
2017-02-08T02:39:03.981Z,11.34
2017-02-08T02:40:12.958Z,11.44
2017-02-08T02:41:21.935Z,11.35
2017-02-08T02:42:31.327Z,11.35
2017-02-08T02:43:40.325Z,11.35
2017-02-08T02:44:49.306Z,11.4
2017-02-08T02:45:58.289Z,11.4
2017-02-08T02:47:07.310Z,11.34
2017-02-08T02:48:16.276Z,11.35
2017-02-08T02:49:25.266Z,11.32
2017-02-08T02:50:34.251Z,11.35
2017-02-08T02:51:43.224Z,11.38
2017-02-08T02:52:52.212Z,11.37
2017-02-08T02:54:01.190Z,11.16
2017-02-08T02:55:10.158Z,11.26
2017-02-08T02:56:19.139Z,11.16
2017-02-08T02:57:28.130Z,11.24
2017-02-08T02:58:37.132Z,11.27
2017-02-08T02:59:46.121Z,11.23
2017-02-08T03:00:55.095Z,11.22
2017-02-08T03:02:04.082Z,11.23
2017-02-08T03:03:13.063Z,11.22
2017-02-08T03:04:22.044Z,11.27
2017-02-08T03:05:31.428Z,11.22
2017-02-08T03:06:40.410Z,11.3
2017-02-08T03:07:50.225Z,11.22
2017-02-08T03:08:59.610Z,11.19
2017-02-08T03:10:08.629Z,11.17
2017-02-08T03:11:17.604Z,11.23
2017-02-08T03:12:26.571Z,11.17
2017-02-08T03:13:35.556Z,11.16
2017-02-08T03:14:44.537Z,11.15
2017-02-08T03:15:53.523Z,11.13
2017-02-08T03:17:02.916Z,11.13
2017-02-08T03:18:11.927Z,11.1
2017-02-08T03:19:20.910Z,11.07
2017-02-08T03:20:29.883Z,11.12
2017-02-08T03:21:38.861Z,11.04
2017-02-08T03:22:47.834Z,10.99
2017-02-08T03:23:56.812Z,11.07
2017-02-08T03:25:05.795Z,11.04
2017-02-08T03:26:14.782Z,11.05
2017-02-08T03:27:23.759Z,11.05
2017-02-08T03:28:32.733Z,11.02
2017-02-08T03:29:41.710Z,11.07
2017-02-08T03:30:50.688Z,10.99
2017-02-08T03:31:59.680Z,10.95
2017-02-08T03:33:09.068Z,10.84
2017-02-08T03:34:18.040Z,10.92
2017-02-08T03:35:27.440Z,10.94
2017-02-08T03:36:36.418Z,10.89
2017-02-08T03:37:45.395Z,10.89
2017-02-08T03:38:54.387Z,10.9
2017-02-08T03:40:03.361Z,10.95
2017-02-08T03:41:12.340Z,10.87
2017-02-08T03:42:21.731Z,10.87
2017-02-08T03:43:30.704Z,10.84
2017-02-08T03:44:39.679Z,10.8
2017-02-08T03:45:48.665Z,10.8
2017-02-08T03:46:57.647Z,10.83
2017-02-08T03:48:06.613Z,10.76
2017-02-08T03:49:15.589Z,10.79
2017-02-08T03:50:24.578Z,10.8
2017-02-08T03:51:33.549Z,10.8
2017-02-08T03:52:42.535Z,10.8
2017-02-08T03:53:51.502Z,10.79
2017-02-08T03:55:00.483Z,10.66
2017-02-08T03:56:09.454Z,10.59
2017-02-08T03:57:18.444Z,10.64
2017-02-08T03:58:27.422Z,10.62
2017-02-08T03:59:36.410Z,10.59
2017-02-08T04:00:45.397Z,10.65
2017-02-08T04:01:54.368Z,10.66
2017-02-08T04:03:03.352Z,10.65
2017-02-08T04:04:12.334Z,10.64
2017-02-08T04:05:21.316Z,10.59
2017-02-08T04:06:30.299Z,10.59
2017-02-08T04:07:39.268Z,10.66
2017-02-08T04:08:48.249Z,10.47
2017-02-08T04:09:57.231Z,10.62
2017-02-08T04:11:06.221Z,10.47
2017-02-08T04:12:15.187Z,10.4
2017-02-08T04:13:24.157Z,10.42
2017-02-08T04:14:33.139Z,10.47
2017-02-08T04:15:42.112Z,10.55
2017-02-08T04:16:51.102Z,10.53
2017-02-08T04:18:00.079Z,10.59
2017-02-08T04:19:09.053Z,10.58
2017-02-08T04:20:18.032Z,10.56
2017-02-08T04:21:27.434Z,10.49
2017-02-08T04:22:36.415Z,10.53
2017-02-08T04:23:45.398Z,10.58
2017-02-08T04:24:54.392Z,10.55
2017-02-08T04:26:03.372Z,10.56
2017-02-08T04:27:12.760Z,10.53
2017-02-08T04:28:21.744Z,10.53
2017-02-08T04:29:30.726Z,10.61
2017-02-08T04:30:39.699Z,10.47
2017-02-08T04:31:48.677Z,10.42
2017-02-08T04:32:58.076Z,10.4
2017-02-08T04:34:07.057Z,10.49
2017-02-08T04:35:16.034Z,10.45
2017-02-08T04:36:25.018Z,10.58
2017-02-08T04:37:34.408Z,10.45
2017-02-08T04:38:43.373Z,10.46
2017-02-08T04:39:52.354Z,10.43
2017-02-08T04:41:01.337Z,10.42
2017-02-08T04:42:10.329Z,10.43
2017-02-08T04:43:19.719Z,10.42
2017-02-08T04:44:28.685Z,10.4
2017-02-08T04:45:37.663Z,10.39
2017-02-08T04:46:47.061Z,10.42
2017-02-08T04:47:56.052Z,10.45
2017-02-08T04:49:05.024Z,10.43
2017-02-08T04:50:14.003Z,10.47
2017-02-08T04:51:22.980Z,10.42
2017-02-08T04:52:32.383Z,10.47
2017-02-08T04:53:41.364Z,10.4
2017-02-08T04:54:50.764Z,10.39
2017-02-08T04:55:59.731Z,10.46
2017-02-08T04:57:08.705Z,10.43
2017-02-08T04:58:17.687Z,10.42
2017-02-08T04:59:26.664Z,10.43
2017-02-08T05:00:35.657Z,10.35
2017-02-08T05:01:45.062Z,10.36
2017-02-08T05:02:54.039Z,10.31
2017-02-08T05:04:03.025Z,10.39
2017-02-08T05:05:12.002Z,10.27
2017-02-08T05:06:20.983Z,10.28
2017-02-08T05:07:29.963Z,10.36
2017-02-08T05:08:38.938Z,10.24
2017-02-08T05:09:47.917Z,10.22
2017-02-08T05:10:56.899Z,10.3
2017-02-08T05:12:05.884Z,10.22
2017-02-08T05:13:14.859Z,10.21
2017-02-08T05:14:23.847Z,10.22
2017-02-08T05:15:32.827Z,10.27
2017-02-08T05:16:41.803Z,10.18
2017-02-08T05:17:50.781Z,10.17
2017-02-08T05:18:59.755Z,10.13
2017-02-08T05:20:08.728Z,10.18
2017-02-08T05:21:17.710Z,10.12
2017-02-08T05:22:26.703Z,10.17
2017-02-08T05:23:35.680Z,10.2
2017-02-08T05:24:44.651Z,10.13
2017-02-08T05:25:53.628Z,10.18
2017-02-08T05:27:02.624Z,10.18
2017-02-08T05:28:11.600Z,10.14
2017-02-08T05:29:20.572Z,10.17
2017-02-08T05:30:29.961Z,10.14
2017-02-08T05:31:38.931Z,10.14
2017-02-08T05:32:47.907Z,10.17
2017-02-08T05:33:56.883Z,10.13
2017-02-08T05:35:05.862Z,10.12
2017-02-08T05:36:14.857Z,10.05
2017-02-08T05:37:23.850Z,10.03
2017-02-08T05:38:32.843Z,10.07
2017-02-08T05:39:41.825Z,10.14
2017-02-08T05:40:50.807Z,10.2
2017-02-08T05:41:59.781Z,10.06
2017-02-08T05:43:08.769Z,10.02
2017-02-08T05:44:17.743Z,9.99
2017-02-08T05:45:26.714Z,9.94
2017-02-08T05:46:35.684Z,9.89
2017-02-08T05:47:44.676Z,9.94
2017-02-08T05:48:53.650Z,9.94
2017-02-08T05:50:02.645Z,10.07
2017-02-08T05:51:12.026Z,10.09
2017-02-08T05:52:21.002Z,9.99
2017-02-08T05:53:29.994Z,10.02
2017-02-08T05:54:38.980Z,9.97
2017-02-08T05:55:48.381Z,9.92
2017-02-08T05:56:57.417Z,9.88
2017-02-08T05:58:06.401Z,9.92
2017-02-08T05:59:15.799Z,9.88
2017-02-08T06:00:24.794Z,9.91
2017-02-08T06:01:33.781Z,9.84
2017-02-08T06:02:42.748Z,9.85
2017-02-08T06:03:51.716Z,9.82
2017-02-08T06:05:00.739Z,9.88
2017-02-08T06:06:09.714Z,9.89
2017-02-08T06:07:18.745Z,9.97
2017-02-08T06:08:27.718Z,9.94
2017-02-08T06:09:36.691Z,10.4
2017-02-08T06:10:45.665Z,10.62
2017-02-08T06:11:54.650Z,10.87
2017-02-08T06:13:03.623Z,11.1
2017-02-08T06:14:13.015Z,11.17
2017-02-08T06:15:21.997Z,11.17
2017-02-08T06:16:30.971Z,11.3
2017-02-08T06:17:39.952Z,11.31
2017-02-08T06:18:48.940Z,11.32
2017-02-08T06:19:58.329Z,11.5
2017-02-08T06:21:07.307Z,11.74
2017-02-08T06:22:16.289Z,11.82
2017-02-08T06:23:25.274Z,12.08
2017-02-08T06:24:34.251Z,12.11
2017-02-08T06:25:43.702Z,11.93
2017-02-08T06:26:52.676Z,11.75
2017-02-08T06:28:01.657Z,11.62
2017-02-08T06:29:10.637Z,11.49
2017-02-08T06:30:19.615Z,11.68
2017-02-08T06:31:36.089Z,11.81
2017-02-08T06:32:45.059Z,12
2017-02-08T06:33:54.046Z,12.04
2017-02-08T06:35:03.050Z,12.21
2017-02-08T06:36:12.026Z,12.45
2017-02-08T06:37:21.010Z,12.52
2017-02-08T06:38:29.998Z,12.66
2017-02-08T06:39:38.969Z,12.65
2017-02-08T06:40:47.940Z,12.76
2017-02-08T06:41:56.923Z,12.85
2017-02-08T06:43:05.899Z,12.8
2017-02-08T06:44:14.889Z,12.78
2017-02-08T06:45:23.865Z,12.9
2017-02-08T06:46:32.842Z,12.91
2017-02-08T06:47:41.817Z,12.98
2017-02-08T06:48:50.798Z,13.05
2017-02-08T06:49:59.771Z,13.12
2017-02-08T06:51:08.754Z,13.17
2017-02-08T06:52:17.739Z,13.25
2017-02-08T06:53:26.711Z,13.3
2017-02-08T06:54:35.692Z,13.24
2017-02-08T06:55:44.682Z,13.27
2017-02-08T06:56:53.656Z,13.28
2017-02-08T06:58:02.632Z,13.25
2017-02-08T06:59:11.617Z,13.32
2017-02-08T07:00:20.598Z,13.4
2017-02-08T07:01:29.570Z,13.41
2017-02-08T07:02:38.562Z,13.5
2017-02-08T07:03:47.548Z,13.4
2017-02-08T07:04:56.526Z,13.39
2017-02-08T07:06:05.514Z,13.5
2017-02-08T07:07:14.913Z,13.58
2017-02-08T07:08:23.889Z,13.51
2017-02-08T07:09:32.868Z,13.51
2017-02-08T07:10:41.847Z,13.51
2017-02-08T07:11:51.235Z,13.58
2017-02-08T07:13:00.225Z,13.61
2017-02-08T07:14:09.198Z,13.64
2017-02-08T07:15:18.183Z,13.62
2017-02-08T07:16:28.042Z,13.62
2017-02-08T07:17:37.025Z,13.65
2017-02-08T07:18:46.872Z,13.68
2017-02-08T07:19:56.280Z,13.76
2017-02-08T07:21:05.264Z,13.73
2017-02-08T07:22:14.647Z,13.76
2017-02-08T07:23:23.651Z,13.73
2017-02-08T07:24:33.057Z,13.74
2017-02-08T07:25:42.446Z,13.86
2017-02-08T07:26:51.519Z,14.05
2017-02-08T07:28:00.905Z,14.34
2017-02-08T07:29:10.126Z,14.63
2017-02-08T07:30:19.105Z,14.8
2017-02-08T07:31:28.102Z,14.88
2017-02-08T07:32:37.538Z,15.09
2017-02-08T07:33:46.533Z,15.31
2017-02-08T07:34:55.508Z,15.42
2017-02-08T07:36:04.527Z,15.56
2017-02-08T07:37:13.526Z,15.66
2017-02-08T07:38:22.513Z,15.76
2017-02-08T07:39:31.520Z,15.94
2017-02-08T07:40:40.939Z,16.09
2017-02-08T07:41:49.912Z,16.26
2017-02-08T07:42:58.877Z,16.38
2017-02-08T07:44:07.873Z,16.48
2017-02-08T07:45:16.860Z,16.48
2017-02-08T07:46:25.838Z,16.6
2017-02-08T07:47:35.235Z,16.73
2017-02-08T07:48:44.209Z,16.81
2017-02-08T07:49:53.321Z,16.95
2017-02-08T07:51:02.575Z,17.11
2017-02-08T07:52:11.561Z,15.81
2017-02-08T07:53:20.533Z,14.65
2017-02-08T07:54:29.508Z,13.68
2017-02-08T07:55:38.490Z,12.91
2017-02-08T07:56:47.479Z,12.62
2017-02-08T07:57:56.469Z,11.96
2017-02-08T07:59:05.450Z,11.9
2017-02-08T08:00:14.436Z,11.71
2017-02-08T08:01:23.405Z,11.45
2017-02-08T08:02:32.802Z,11.04
2017-02-08T08:03:41.786Z,10.89
2017-02-08T08:04:51.174Z,10.98
2017-02-08T08:06:00.162Z,11.88
2017-02-08T08:07:09.139Z,13.12
2017-02-08T08:08:18.121Z,14.02
2017-02-08T08:09:27.102Z,14.59
2017-02-08T08:10:36.087Z,14.86
2017-02-08T08:11:45.060Z,15.16
2017-02-08T08:12:54.045Z,15.45
2017-02-08T08:14:03.027Z,15.66
2017-02-08T08:15:11.993Z,15.85
2017-02-08T08:16:20.980Z,16
2017-02-08T08:17:29.953Z,16.26
2017-02-08T08:18:38.947Z,16.29
2017-02-08T08:19:48.073Z,16.41
2017-02-08T08:20:57.052Z,16.42
2017-02-08T08:22:06.440Z,16.71
2017-02-08T08:23:15.418Z,16.81
2017-02-08T08:24:24.432Z,16.96
2017-02-08T08:25:33.416Z,16.98
2017-02-08T08:26:42.407Z,17.02
2017-02-08T08:27:51.372Z,16.96
2017-02-08T08:29:00.368Z,16.98
2017-02-08T08:30:09.343Z,17.21
2017-02-08T08:31:18.313Z,17.44
2017-02-08T08:32:27.298Z,17.51
2017-02-08T08:33:36.280Z,17.58
2017-02-08T08:34:45.274Z,17.85
2017-02-08T08:35:54.259Z,17.79
2017-02-08T08:37:03.238Z,17.85
2017-02-08T08:38:12.222Z,18.02
2017-02-08T08:39:21.354Z,18.42
2017-02-08T08:40:30.330Z,18.36
2017-02-08T08:41:39.327Z,18.34
2017-02-08T08:42:48.323Z,18.57
2017-02-08T08:43:57.298Z,18.5
2017-02-08T08:45:06.283Z,18.43
2017-02-08T08:46:15.270Z,18.39
2017-02-08T08:47:24.254Z,18.36
2017-02-08T08:48:33.277Z,18.4
2017-02-08T08:49:42.260Z,18.46
2017-02-08T08:50:51.238Z,19.02
2017-02-08T08:52:00.219Z,18.95
2017-02-08T08:53:09.219Z,18.95
2017-02-08T08:54:18.193Z,18.91
2017-02-08T08:55:27.178Z,18.77
2017-02-08T08:56:36.175Z,18.99
2017-02-08T08:57:45.147Z,19.18
2017-02-08T08:58:54.128Z,19.36
2017-02-08T09:00:03.106Z,19.39
2017-02-08T09:01:12.092Z,19.36
2017-02-08T09:02:21.079Z,19.43
2017-02-08T09:03:30.073Z,19.36
2017-02-08T09:04:39.088Z,19.45
2017-02-08T09:05:48.075Z,19.62
2017-02-08T09:06:57.052Z,19.76
2017-02-08T09:08:06.039Z,19.79
2017-02-08T09:09:15.031Z,19.87
2017-02-08T09:10:24.017Z,19.91
2017-02-08T09:11:32.998Z,20.04
2017-02-08T09:12:41.967Z,20.04
2017-02-08T09:13:50.963Z,20.12
2017-02-08T09:14:59.955Z,20.16
2017-02-08T09:16:08.950Z,20.28
2017-02-08T09:17:17.933Z,20.3
2017-02-08T09:18:27.331Z,20.37
2017-02-08T09:19:36.319Z,20.35
2017-02-08T09:20:45.745Z,20.53
2017-02-08T09:21:54.751Z,20.57
2017-02-08T09:23:03.745Z,20.63
2017-02-08T09:24:12.731Z,20.79
2017-02-08T09:25:21.716Z,20.84
2017-02-08T09:26:30.706Z,20.91
2017-02-08T09:27:39.691Z,20.9
2017-02-08T09:28:48.682Z,20.94
2017-02-08T09:29:57.672Z,20.97
2017-02-08T09:31:06.677Z,21.18
2017-02-08T09:32:15.684Z,21.18
2017-02-08T09:33:24.653Z,21.24
2017-02-08T09:34:34.065Z,21.12
2017-02-08T09:35:43.057Z,20.94
2017-02-08T09:36:52.037Z,20.68
2017-02-08T09:38:01.039Z,20.54
2017-02-08T09:39:10.117Z,20.47
2017-02-08T09:40:19.095Z,20.46
2017-02-08T09:41:28.087Z,20.51
2017-02-08T09:42:37.498Z,20.34
2017-02-08T09:43:46.474Z,20.31
2017-02-08T09:44:55.472Z,20.22
2017-02-08T09:46:04.464Z,20.24
2017-02-08T09:47:13.456Z,20.25
2017-02-08T09:48:22.447Z,20.25
2017-02-08T09:49:31.439Z,20.13
2017-02-08T09:50:40.848Z,20.07
2017-02-08T09:51:49.840Z,20.06
2017-02-08T09:52:58.836Z,19.97
2017-02-08T09:54:07.814Z,19.92
2017-02-08T09:55:16.810Z,20
2017-02-08T09:56:25.796Z,19.98
2017-02-08T09:57:34.783Z,19.98
2017-02-08T09:58:43.772Z,19.97
2017-02-08T09:59:52.758Z,20.01
2017-02-08T10:01:01.743Z,20
2017-02-08T10:02:10.724Z,20
2017-02-08T10:03:19.714Z,20.01
2017-02-08T10:04:28.697Z,19.94
2017-02-08T10:05:38.093Z,19.97
2017-02-08T10:06:47.085Z,19.92
2017-02-08T10:07:56.071Z,19.92
2017-02-08T10:09:05.062Z,19.87
2017-02-08T10:10:14.058Z,19.85
2017-02-08T10:11:23.053Z,19.8
2017-02-08T10:12:32.034Z,19.77
2017-02-08T10:13:41.017Z,19.9
2017-02-08T10:14:50.006Z,19.88
2017-02-08T10:15:58.996Z,19.88
2017-02-08T10:17:07.995Z,19.9
2017-02-08T10:18:16.965Z,19.88
2017-02-08T10:19:25.941Z,19.92
2017-02-08T10:20:34.939Z,19.91
2017-02-08T10:21:43.936Z,19.91
2017-02-08T10:22:52.911Z,18.46
2017-02-08T10:24:01.911Z,17.6
2017-02-08T10:25:10.884Z,16.96
2017-02-08T10:26:19.871Z,16.37
2017-02-08T10:27:28.909Z,16.22
2017-02-08T10:28:37.935Z,17.42
2017-02-08T10:29:46.939Z,18.61
2017-02-08T10:30:55.939Z,19.58
2017-02-08T10:32:04.922Z,20.01
2017-02-08T10:33:13.915Z,20.35
2017-02-08T10:34:22.900Z,20.62
2017-02-08T10:35:31.889Z,20.73
2017-02-08T10:36:40.873Z,20.46
2017-02-08T10:37:49.976Z,20.3
2017-02-08T10:38:58.957Z,20.4
2017-02-08T10:40:07.946Z,20.68
2017-02-08T10:41:16.931Z,20.87
2017-02-08T10:42:25.923Z,20.94
2017-02-08T10:43:34.914Z,21.09
2017-02-08T10:44:43.902Z,20.97
2017-02-08T10:45:52.887Z,21.12
2017-02-08T10:47:01.873Z,21.09
2017-02-08T10:48:10.850Z,21.1
2017-02-08T10:49:19.842Z,21.18
2017-02-08T10:50:29.079Z,21.39
2017-02-08T10:51:38.903Z,21.43
2017-02-08T10:52:47.885Z,21.43
2017-02-08T10:53:56.883Z,21.67
2017-02-08T10:55:05.890Z,22.11
2017-02-08T10:56:14.865Z,21.7
2017-02-08T10:57:23.849Z,21.27
2017-02-08T10:58:33.256Z,20.97
2017-02-08T10:59:42.247Z,20.83
2017-02-08T11:00:51.224Z,20.63
2017-02-08T11:02:00.208Z,20.56
2017-02-08T11:03:09.184Z,20.41
2017-02-08T11:04:18.192Z,20.41
2017-02-08T11:05:27.181Z,20.34
2017-02-08T11:06:36.166Z,20.41
2017-02-08T11:07:45.572Z,20.27
2017-02-08T11:08:54.555Z,20.31
2017-02-08T11:10:03.545Z,20.3
2017-02-08T11:11:12.539Z,20.27
2017-02-08T11:12:21.955Z,20.31
2017-02-08T11:13:30.937Z,20.34
2017-02-08T11:14:39.970Z,20.31
2017-02-08T11:15:48.961Z,20.32
2017-02-08T11:16:57.943Z,20.2
2017-02-08T11:18:06.936Z,20.35
2017-02-08T11:19:15.920Z,20.24
2017-02-08T11:20:24.903Z,20.24
2017-02-08T11:21:33.888Z,20.25
2017-02-08T11:22:42.876Z,20.22
2017-02-08T11:23:51.868Z,20.17
2017-02-08T11:25:00.855Z,20.17
2017-02-08T11:26:09.849Z,20.13
2017-02-08T11:27:18.831Z,20.07
2017-02-08T11:28:27.822Z,20.13
2017-02-08T11:29:36.809Z,20.04
2017-02-08T11:30:45.784Z,20.06
2017-02-08T11:31:55.181Z,20.06
2017-02-08T11:33:04.169Z,20.09
2017-02-08T11:34:13.144Z,20.06
2017-02-08T11:35:22.538Z,20.04
2017-02-08T11:36:31.775Z,20.02
2017-02-08T11:37:40.769Z,20
2017-02-08T11:38:49.759Z,20.04
2017-02-08T11:39:58.752Z,20
2017-02-08T11:41:07.743Z,20.01
2017-02-08T11:42:16.782Z,20.02
2017-02-08T11:43:25.777Z,20.07
2017-02-08T11:44:34.759Z,20.43
2017-02-08T11:45:43.753Z,20.58
2017-02-08T11:46:52.747Z,20.6
2017-02-08T11:48:02.805Z,20.78
2017-02-08T11:49:11.796Z,20.83
2017-02-08T11:50:20.794Z,20.84
2017-02-08T11:51:29.785Z,21.02
2017-02-08T11:52:38.763Z,21.13
2017-02-08T11:53:47.751Z,21.24
2017-02-08T11:54:56.788Z,21.45
2017-02-08T11:56:05.764Z,21.58
2017-02-08T11:57:14.752Z,21.6
2017-02-08T11:58:23.737Z,21.49
2017-02-08T11:59:32.726Z,21.24
2017-02-08T12:00:41.708Z,21.2
2017-02-08T12:01:50.691Z,21.13
2017-02-08T12:02:59.675Z,20.9
2017-02-08T12:04:09.266Z,20.93
2017-02-08T12:05:18.281Z,20.91
2017-02-08T12:06:27.274Z,20.87
2017-02-08T12:07:36.273Z,20.94
2017-02-08T12:08:45.288Z,20.93
2017-02-08T12:09:54.274Z,21.09
2017-02-08T12:11:03.300Z,20.97
2017-02-08T12:12:12.343Z,21.09
2017-02-08T12:13:21.319Z,20.97
2017-02-08T12:14:30.337Z,20.97
2017-02-08T12:15:39.330Z,20.99
2017-02-08T12:16:48.393Z,21.08
2017-02-08T12:17:57.384Z,21.12
2017-02-08T12:19:06.383Z,21.09
2017-02-08T12:20:15.367Z,21.15
2017-02-08T12:21:24.355Z,21.08
2017-02-08T12:22:33.339Z,21.09
2017-02-08T12:23:42.331Z,21.06
2017-02-08T12:24:51.313Z,21.13
2017-02-08T12:26:00.304Z,21.09
2017-02-08T12:27:09.706Z,20.93
2017-02-08T12:28:18.691Z,20.93
2017-02-08T12:29:27.674Z,20.93
2017-02-08T12:30:37.073Z,20.94
2017-02-08T12:31:46.059Z,20.93
2017-02-08T12:32:55.077Z,20.91
2017-02-08T12:34:04.063Z,20.87
2017-02-08T12:35:13.058Z,20.93
2017-02-08T12:36:22.051Z,21.02
2017-02-08T12:37:31.043Z,21.01
2017-02-08T12:38:40.029Z,20.9
2017-02-08T12:39:49.048Z,20.87
2017-02-08T12:40:58.028Z,20.95
2017-02-08T12:42:07.475Z,20.97
2017-02-08T12:43:16.457Z,20.97
2017-02-08T12:44:25.458Z,20.93
2017-02-08T12:45:34.864Z,20.93
2017-02-08T12:46:43.848Z,20.91
2017-02-08T12:47:53.249Z,20.9
2017-02-08T12:49:02.248Z,20.93
2017-02-08T12:50:11.223Z,20.9
2017-02-08T12:51:20.212Z,20.91
2017-02-08T12:52:29.208Z,20.9
2017-02-08T12:53:38.600Z,20.83
2017-02-08T12:54:47.595Z,20.83
2017-02-08T12:55:56.579Z,20.81
2017-02-08T12:57:05.574Z,20.84
2017-02-08T12:58:14.576Z,20.86
2017-02-08T12:59:23.982Z,20.83
2017-02-08T13:00:32.985Z,20.84
2017-02-08T13:01:41.973Z,20.84
2017-02-08T13:02:50.975Z,20.9
2017-02-08T13:03:59.964Z,20.83
2017-02-08T13:05:08.962Z,20.83
2017-02-08T13:06:17.952Z,20.81
2017-02-08T13:07:26.937Z,20.75
2017-02-08T13:08:35.942Z,20.71
2017-02-08T13:09:44.924Z,20.76
2017-02-08T13:10:53.911Z,20.79
2017-02-08T13:12:02.900Z,20.66
2017-02-08T13:13:11.889Z,20.66
2017-02-08T13:14:20.884Z,20.71
2017-02-08T13:15:29.918Z,20.75
2017-02-08T13:16:39.309Z,20.75
2017-02-08T13:17:48.704Z,20.72
2017-02-08T13:18:57.725Z,20.69
2017-02-08T13:20:06.718Z,20.76
2017-02-08T13:21:15.695Z,20.69
2017-02-08T13:22:24.694Z,20.68
2017-02-08T13:23:33.695Z,20.71
2017-02-08T13:24:42.676Z,20.68
2017-02-08T13:25:51.656Z,20.68
2017-02-08T13:27:01.063Z,20.68
2017-02-08T13:28:10.054Z,20.71
2017-02-08T13:29:19.032Z,20.68
2017-02-08T13:30:28.021Z,20.71
2017-02-08T13:31:37.012Z,20.6
2017-02-08T13:32:45.995Z,20.68
2017-02-08T13:33:54.983Z,20.63
2017-02-08T13:35:04.382Z,20.65
2017-02-08T13:36:13.378Z,20.65
2017-02-08T13:37:22.369Z,20.73
2017-02-08T13:38:31.345Z,20.66
2017-02-08T13:39:40.331Z,20.72
2017-02-08T13:40:49.343Z,20.71
2017-02-08T13:41:58.334Z,20.68
2017-02-08T13:43:07.329Z,20.72
2017-02-08T13:44:16.317Z,20.69
2017-02-08T13:45:25.290Z,20.71
2017-02-08T13:46:34.284Z,20.73
2017-02-08T13:47:43.277Z,20.65
2017-02-08T13:48:52.260Z,20.71
2017-02-08T13:50:01.253Z,20.68
2017-02-08T13:51:10.246Z,20.71
2017-02-08T13:52:19.246Z,20.72
2017-02-08T13:53:28.242Z,20.65
2017-02-08T13:54:37.237Z,20.6
2017-02-08T13:55:46.232Z,20.66
2017-02-08T13:56:55.630Z,20.66
2017-02-08T13:58:05.037Z,20.62
2017-02-08T13:59:14.023Z,20.66
2017-02-08T14:00:23.003Z,20.63
2017-02-08T14:01:31.998Z,20.6
2017-02-08T14:02:40.987Z,20.62
2017-02-08T14:03:49.976Z,20.66
2017-02-08T14:04:58.965Z,20.6
2017-02-08T14:06:07.952Z,20.63
2017-02-08T14:07:16.940Z,20.57
2017-02-08T14:08:25.934Z,20.66
2017-02-08T14:09:34.919Z,20.6
2017-02-08T14:10:44.318Z,20.6
2017-02-08T14:11:54.320Z,20.58
2017-02-08T14:13:03.708Z,20.6
2017-02-08T14:14:13.258Z,20.6
2017-02-08T14:15:22.252Z,20.6
2017-02-08T14:16:31.241Z,20.6
2017-02-08T14:17:40.221Z,20.57
2017-02-08T14:18:49.212Z,20.6
2017-02-08T14:19:58.196Z,20.63
2017-02-08T14:21:07.188Z,20.65
2017-02-08T14:22:16.172Z,20.58
2017-02-08T14:23:25.159Z,20.62
2017-02-08T14:24:34.144Z,20.58
2017-02-08T14:25:43.129Z,20.57
2017-02-08T14:26:52.109Z,20.56
2017-02-08T14:28:01.094Z,20.5
2017-02-08T14:29:10.078Z,20.51
2017-02-08T14:30:19.073Z,20.51
2017-02-08T14:31:28.059Z,20.47
2017-02-08T14:34:37.052Z,20.5
2017-02-08T14:41:47.004Z,20.5
2017-02-08T14:42:56.731Z,20.51
2017-02-08T14:44:05.724Z,20.48
2017-02-08T14:45:14.711Z,20.51
2017-02-08T14:46:23.705Z,20.47
2017-02-08T14:47:32.694Z,20.43
2017-02-08T14:48:41.719Z,20.41
2017-02-08T14:49:50.708Z,20.38
2017-02-08T14:50:59.695Z,20.32
2017-02-08T14:52:08.682Z,20.34
2017-02-08T14:53:17.663Z,20.41
2017-02-08T14:54:26.643Z,20.34
2017-02-08T14:55:35.639Z,20.31
2017-02-08T14:56:45.054Z,20.41
2017-02-08T14:57:54.040Z,20.37
2017-02-08T14:59:03.031Z,20.32
2017-02-08T15:00:12.021Z,20.28
2017-02-08T15:01:20.998Z,20.27